createdAt,value
2024-02-09T00:00:04.129Z,98.17
2024-02-09T00:02:36.377Z,98.05
2024-02-09T00:05:08.511Z,97.99
2024-02-09T00:07:41.244Z,97.99
2024-02-09T00:10:13.589Z,97.88
2024-02-09T00:12:44.899Z,97.79
2024-02-09T00:15:14.752Z,97.86
2024-02-09T00:17:46.207Z,97.95
2024-02-09T00:20:17.597Z,97.81
2024-02-09T00:22:50.597Z,97.92
2024-02-09T00:25:22.020Z,97.89
2024-02-09T00:27:53.106Z,97.92
2024-02-09T00:30:26.329Z,97.97
2024-02-09T00:32:59.697Z,98.03
2024-02-09T00:35:33.855Z,97.97
2024-02-09T00:38:06.366Z,97.86
2024-02-09T00:40:37.771Z,97.83
2024-02-09T00:43:09.453Z,97.87
2024-02-09T00:45:40.925Z,97.84
2024-02-09T00:48:12.990Z,97.83
2024-02-09T00:50:44.449Z,97.64
2024-02-09T00:53:15.547Z,97.66
2024-02-09T00:55:45.432Z,97.67
2024-02-09T00:58:16.629Z,97.66
2024-02-09T01:00:47.876Z,97.73
2024-02-09T01:03:21.547Z,97.70
2024-02-09T01:05:55.791Z,97.77
2024-02-09T01:08:30.463Z,97.72
2024-02-09T01:11:02.024Z,97.71
2024-02-09T01:13:51.586Z,97.56
2024-02-09T01:16:40.490Z,97.53
2024-02-09T01:19:29.002Z,97.62
2024-02-09T01:22:17.788Z,97.65
2024-02-09T01:25:06.672Z,97.70
2024-02-09T01:27:55.345Z,97.66
2024-02-09T01:30:44.041Z,97.62
2024-02-09T01:33:33.067Z,97.62
2024-02-09T01:36:21.812Z,97.45
2024-02-09T01:39:10.538Z,97.47
2024-02-09T01:41:59.121Z,97.32
2024-02-09T01:44:47.787Z,97.34
2024-02-09T01:47:37.315Z,97.44
2024-02-09T01:50:27.725Z,97.36
2024-02-09T01:53:17.259Z,97.47
2024-02-09T01:56:06.247Z,97.51
2024-02-09T01:58:55.240Z,97.61
2024-02-09T02:01:44.550Z,97.54
2024-02-09T02:04:33.907Z,97.59
2024-02-09T02:07:23.056Z,97.59
2024-02-09T02:10:11.560Z,97.62
2024-02-09T02:13:00.463Z,97.62
2024-02-09T02:15:49.026Z,97.68
2024-02-09T02:18:37.446Z,97.72
2024-02-09T02:21:26.485Z,97.66
2024-02-09T02:24:18.321Z,97.62
2024-02-09T02:27:06.876Z,97.63
2024-02-09T02:29:56.060Z,97.64
2024-02-09T02:32:45.068Z,97.66
2024-02-09T02:35:33.749Z,97.54
2024-02-09T02:38:22.237Z,97.52
2024-02-09T02:41:11.797Z,97.56
2024-02-09T02:43:41.669Z,97.57
2024-02-09T02:46:16.141Z,97.55
2024-02-09T02:49:05.999Z,97.49
2024-02-09T02:51:54.601Z,97.48
2024-02-09T02:54:43.248Z,97.64
2024-02-09T02:57:31.897Z,97.61
2024-02-09T03:00:20.265Z,97.66
2024-02-09T03:03:08.895Z,97.61
2024-02-09T03:05:40.964Z,97.62
2024-02-09T03:08:44.708Z,97.70
2024-02-09T03:11:05.186Z,97.79
2024-02-09T03:13:36.409Z,97.70
2024-02-09T03:16:06.287Z,97.69
2024-02-09T03:18:35.954Z,97.71
2024-02-09T03:21:07.462Z,97.74
2024-02-09T03:23:38.680Z,97.88
2024-02-09T03:26:10.093Z,97.80
2024-02-09T03:28:41.331Z,97.71
2024-02-09T03:31:14.169Z,97.75
2024-02-09T03:33:45.772Z,97.67
2024-02-09T03:36:21.893Z,97.77
2024-02-09T03:38:52.964Z,97.73
2024-02-09T03:41:26.948Z,97.66
2024-02-09T03:44:06.335Z,97.68
2024-02-09T03:46:37.940Z,97.72
2024-02-09T03:49:12.468Z,97.86
2024-02-09T03:51:43.661Z,97.78
2024-02-09T03:54:14.679Z,97.74
2024-02-09T03:56:44.446Z,97.79
2024-02-09T03:59:16.614Z,97.85
2024-02-09T04:01:48.119Z,97.91
2024-02-09T04:04:20.136Z,97.91
2024-02-09T04:06:51.443Z,97.82
2024-02-09T04:09:40.838Z,97.76
2024-02-09T04:12:13.937Z,97.76
2024-02-09T04:14:45.379Z,97.89
2024-02-09T04:17:16.488Z,98.07
2024-02-09T04:19:46.412Z,98.13
2024-02-09T04:22:15.994Z,98.16
2024-02-09T04:24:48.331Z,98.20
2024-02-09T04:27:19.494Z,98.29
2024-02-09T04:29:51.048Z,98.25
2024-02-09T04:32:22.072Z,98.24
2024-02-09T04:34:53.607Z,98.30
2024-02-09T04:37:24.860Z,98.41
2024-02-09T04:39:54.466Z,98.35
2024-02-09T04:42:25.758Z,98.40
2024-02-09T04:44:56.865Z,98.50
2024-02-09T04:47:27.882Z,98.40
2024-02-09T04:49:58.945Z,98.60
2024-02-09T04:52:30.926Z,98.59
2024-02-09T04:55:02.055Z,98.59
2024-02-09T04:57:33.758Z,98.59
2024-02-09T05:00:05.280Z,98.65
2024-02-09T05:02:37.905Z,98.58
2024-02-09T05:05:09.978Z,98.46
2024-02-09T05:07:41.200Z,98.50
2024-02-09T05:10:13.764Z,98.39
2024-02-09T05:12:44.922Z,98.35
2024-02-09T05:15:18.120Z,98.31
2024-02-09T05:17:49.412Z,98.33
2024-02-09T05:20:18.853Z,98.30
2024-02-09T05:22:50.025Z,98.36
2024-02-09T05:25:22.162Z,98.29
2024-02-09T05:27:57.607Z,98.25
2024-02-09T05:30:30.628Z,98.30
2024-02-09T05:33:04.108Z,98.15
2024-02-09T05:35:35.165Z,98.21
2024-02-09T05:38:06.396Z,98.16
2024-02-09T05:40:37.589Z,98.06
2024-02-09T05:43:07.314Z,98.12
2024-02-09T05:45:38.313Z,98.08
2024-02-09T05:48:10.716Z,98.17
2024-02-09T05:50:42.084Z,98.18
2024-02-09T05:53:13.990Z,98.10
2024-02-09T05:55:46.675Z,98.05
2024-02-09T05:58:17.975Z,98.10
2024-02-09T06:00:49.056Z,98.17
2024-02-09T06:03:20.495Z,98.25
2024-02-09T06:05:50.139Z,98.30
2024-02-09T06:08:22.134Z,98.39
2024-02-09T06:10:53.412Z,98.29
2024-02-09T06:13:27.228Z,98.18
2024-02-09T06:15:59.785Z,98.18
2024-02-09T06:18:31.293Z,98.36
2024-02-09T06:21:04.274Z,98.29
2024-02-09T06:23:37.047Z,98.33
2024-02-09T06:26:09.801Z,98.26
2024-02-09T06:28:41.398Z,98.24
2024-02-09T06:31:16.545Z,98.38
2024-02-09T06:33:51.508Z,98.35
2024-02-09T06:36:23.547Z,98.36
2024-02-09T06:38:55.638Z,98.26
2024-02-09T06:41:26.813Z,98.25
2024-02-09T06:43:58.410Z,98.21
2024-02-09T06:46:29.589Z,98.34
2024-02-09T06:49:01.786Z,98.39
2024-02-09T06:51:33.244Z,98.27
2024-02-09T06:54:02.806Z,98.31
2024-02-09T06:56:33.804Z,98.29
2024-02-09T06:59:07.360Z,98.30
2024-02-09T07:01:39.716Z,98.47
2024-02-09T07:04:17.820Z,98.54
2024-02-09T07:06:49.546Z,98.56
2024-02-09T07:09:32.860Z,98.79
2024-02-09T07:12:06.884Z,99.49
2024-02-09T07:14:38.059Z,100.00
2024-02-09T07:17:07.697Z,100.00
2024-02-09T07:19:38.875Z,100.00
2024-02-09T07:22:08.392Z,100.00
2024-02-09T07:24:39.962Z,100.00
2024-02-09T07:27:11.129Z,100.00
2024-02-09T07:29:42.146Z,100.00
2024-02-09T07:32:11.678Z,100.00
2024-02-09T07:34:42.985Z,100.00
2024-02-09T07:37:14.562Z,100.00
2024-02-09T07:39:45.558Z,100.00
2024-02-09T07:42:15.132Z,100.00
2024-02-09T07:44:46.034Z,100.00
2024-02-09T07:47:17.304Z,100.00
2024-02-09T07:49:48.308Z,100.00
2024-02-09T07:52:22.218Z,100.00
2024-02-09T07:54:53.231Z,100.00
2024-02-09T07:57:24.206Z,100.00
2024-02-09T07:59:55.426Z,100.00
2024-02-09T08:02:26.999Z,100.00
2024-02-09T08:04:58.072Z,100.00
2024-02-09T08:07:29.291Z,100.00
2024-02-09T08:09:58.756Z,100.00
2024-02-09T08:12:29.754Z,100.00
2024-02-09T08:15:00.729Z,100.00
2024-02-09T08:17:34.896Z,100.00
2024-02-09T08:20:06.903Z,100.00
2024-02-09T08:22:44.964Z,100.00
2024-02-09T08:25:16.581Z,100.00
2024-02-09T08:27:48.321Z,100.00
2024-02-09T08:30:19.518Z,100.00
2024-02-09T08:32:51.187Z,100.00
2024-02-09T08:35:21.132Z,100.00
2024-02-09T08:37:52.635Z,100.00
2024-02-09T08:40:24.214Z,100.00
2024-02-09T08:42:55.553Z,100.00
2024-02-09T08:45:26.711Z,100.00
2024-02-09T08:47:57.768Z,100.00
2024-02-09T08:50:27.358Z,100.00
2024-02-09T08:52:58.463Z,100.00
2024-02-09T08:55:29.806Z,100.00
2024-02-09T08:58:01.059Z,100.00
2024-02-09T09:00:33.155Z,100.00
2024-02-09T09:03:04.874Z,100.00
2024-02-09T09:05:35.965Z,100.00
2024-02-09T09:08:08.436Z,100.00
2024-02-09T09:10:40.319Z,100.00
2024-02-09T09:13:12.816Z,100.00
2024-02-09T09:15:44.014Z,100.00
2024-02-09T09:18:15.116Z,100.00
2024-02-09T09:20:46.961Z,100.00
2024-02-09T09:23:18.630Z,100.00
2024-02-09T09:25:50.636Z,100.00
2024-02-09T09:28:22.361Z,100.00
2024-02-09T09:30:53.351Z,100.00
2024-02-09T09:33:25.000Z,100.00
2024-02-09T09:35:56.679Z,100.00
2024-02-09T09:38:28.000Z,100.00
2024-02-09T09:40:59.736Z,100.00
2024-02-09T09:43:31.278Z,100.00
2024-02-09T09:46:02.401Z,100.00
2024-02-09T09:48:35.202Z,100.00
2024-02-09T09:51:07.344Z,100.00
2024-02-09T09:53:43.897Z,100.00
2024-02-09T09:56:16.048Z,100.00
2024-02-09T09:58:47.702Z,100.00
2024-02-09T10:01:21.618Z,100.00
2024-02-09T10:03:54.978Z,100.00
2024-02-09T10:06:29.662Z,100.00
2024-02-09T10:09:01.245Z,100.00
2024-02-09T10:11:35.224Z,100.00
2024-02-09T10:14:16.398Z,100.00
2024-02-09T10:16:48.979Z,100.00
2024-02-09T10:19:20.562Z,100.00
2024-02-09T10:21:57.182Z,100.00
2024-02-09T10:24:30.689Z,100.00
2024-02-09T10:27:00.046Z,100.00
2024-02-09T10:29:32.485Z,100.00
2024-02-09T10:32:03.691Z,100.00
2024-02-09T10:34:34.989Z,100.00
2024-02-09T10:37:13.700Z,100.00
2024-02-09T10:39:48.536Z,100.00
2024-02-09T10:42:18.221Z,100.00
2024-02-09T10:44:48.804Z,100.00
2024-02-09T10:47:20.830Z,100.00
2024-02-09T10:49:52.490Z,100.00
2024-02-09T10:52:27.278Z,100.00
2024-02-09T10:54:59.409Z,100.00
2024-02-09T10:57:30.905Z,100.00
2024-02-09T11:00:03.043Z,100.00
2024-02-09T11:02:37.250Z,100.00
2024-02-09T11:05:16.244Z,100.00
2024-02-09T11:07:50.684Z,100.00
2024-02-09T11:10:22.795Z,100.00
2024-02-09T11:13:01.594Z,100.00
2024-02-09T11:15:35.728Z,100.00
2024-02-09T11:18:09.795Z,100.00
2024-02-09T11:20:41.435Z,100.00
2024-02-09T11:23:14.580Z,100.00
2024-02-09T11:25:49.729Z,100.00
2024-02-09T11:28:21.685Z,100.00
2024-02-09T11:30:55.642Z,100.00
2024-02-09T11:33:27.189Z,100.00
2024-02-09T11:35:59.455Z,100.00
2024-02-09T11:38:30.501Z,100.00
2024-02-09T11:41:01.810Z,100.00
2024-02-09T11:43:34.707Z,100.00
2024-02-09T11:46:07.424Z,100.00
2024-02-09T11:48:41.481Z,100.00
2024-02-09T11:51:12.535Z,100.00
2024-02-09T11:53:44.313Z,100.00
2024-02-09T11:56:16.036Z,100.00
2024-02-09T11:58:50.672Z,100.00
2024-02-09T12:01:22.618Z,100.00
2024-02-09T12:03:54.267Z,100.00
2024-02-09T12:06:25.633Z,100.00
2024-02-09T12:08:57.863Z,100.00
2024-02-09T12:11:28.964Z,100.00
2024-02-09T12:13:59.961Z,100.00
2024-02-09T12:16:31.134Z,100.00
2024-02-09T12:19:02.387Z,100.00
2024-02-09T12:21:34.267Z,100.00
2024-02-09T12:24:06.386Z,100.00
2024-02-09T12:26:38.424Z,100.00
2024-02-09T12:29:15.931Z,100.00
2024-02-09T12:31:50.252Z,100.00
2024-02-09T12:34:21.591Z,100.00
2024-02-09T12:37:00.453Z,100.00
2024-02-09T12:39:31.702Z,100.00
2024-02-09T12:42:03.807Z,100.00
2024-02-09T12:44:34.912Z,100.00
2024-02-09T12:47:08.631Z,100.00
2024-02-09T12:49:39.847Z,100.00
2024-02-09T12:52:15.635Z,100.00
2024-02-09T12:54:47.911Z,100.00
2024-02-09T12:57:19.450Z,100.00
2024-02-09T12:59:50.611Z,100.00
2024-02-09T13:02:24.310Z,100.00
2024-02-09T13:04:55.625Z,100.00
2024-02-09T13:07:26.704Z,100.00
2024-02-09T13:09:58.232Z,99.96
2024-02-09T13:12:30.355Z,99.77
2024-02-09T13:15:02.933Z,99.66
2024-02-09T13:17:36.751Z,99.70
2024-02-09T13:20:10.753Z,99.76
2024-02-09T13:22:41.990Z,99.79
2024-02-09T13:25:15.686Z,99.67
2024-02-09T13:27:47.700Z,99.59
2024-02-09T13:30:21.338Z,99.47
2024-02-09T13:32:52.400Z,99.44
2024-02-09T13:35:24.201Z,99.45
2024-02-09T13:37:55.913Z,99.42
2024-02-09T13:40:26.979Z,99.26
2024-02-09T13:42:58.548Z,99.29
2024-02-09T13:45:29.764Z,99.15
2024-02-09T13:48:01.685Z,99.05
2024-02-09T13:50:33.710Z,99.03
2024-02-09T13:53:05.400Z,99.00
2024-02-09T13:55:38.431Z,98.93
2024-02-09T13:58:10.519Z,98.96
2024-02-09T14:00:44.011Z,99.00
2024-02-09T14:03:15.325Z,99.03
2024-02-09T14:05:50.931Z,99.06
2024-02-09T14:08:23.956Z,99.02
2024-02-09T14:10:55.581Z,98.96
2024-02-09T14:13:26.801Z,98.96
2024-02-09T14:15:58.033Z,99.05
2024-02-09T14:18:29.359Z,99.14
2024-02-09T14:21:00.479Z,99.25
2024-02-09T14:23:33.632Z,99.28
2024-02-09T14:26:04.804Z,99.07
2024-02-09T14:28:35.949Z,99.01
2024-02-09T14:31:07.246Z,99.12
2024-02-09T14:33:38.357Z,99.15
2024-02-09T14:36:17.880Z,99.09
2024-02-09T14:38:48.866Z,99.02
2024-02-09T14:41:21.301Z,98.96
2024-02-09T14:43:53.070Z,98.95
2024-02-09T14:46:26.625Z,98.91
2024-02-09T14:48:57.773Z,98.95
2024-02-09T14:51:27.409Z,99.06
2024-02-09T14:53:58.496Z,99.30
2024-02-09T14:56:36.285Z,99.34
2024-02-09T14:59:11.177Z,99.28
2024-02-09T15:01:42.796Z,99.27
2024-02-09T15:04:14.112Z,99.09
2024-02-09T15:06:46.222Z,98.77
2024-02-09T15:09:18.275Z,98.59
2024-02-09T15:11:49.265Z,98.51
2024-02-09T15:14:20.349Z,98.57
2024-02-09T15:16:53.662Z,98.46
2024-02-09T15:19:24.930Z,98.33
2024-02-09T15:21:56.029Z,98.20
2024-02-09T15:24:27.117Z,98.03
2024-02-09T15:26:58.178Z,97.98
2024-02-09T15:29:29.844Z,97.72
2024-02-09T15:32:00.858Z,97.72
2024-02-09T15:34:33.498Z,97.61
2024-02-09T15:37:10.083Z,97.14
2024-02-09T15:39:41.117Z,97.34
2024-02-09T15:42:16.183Z,97.59
2024-02-09T15:44:47.900Z,97.87
2024-02-09T15:47:19.243Z,98.00
2024-02-09T15:49:50.840Z,98.04
2024-02-09T15:52:22.035Z,98.03
2024-02-09T15:54:54.185Z,97.88
2024-02-09T15:57:28.599Z,97.80
2024-02-09T15:59:59.871Z,97.54
2024-02-09T16:02:35.410Z,97.42
2024-02-09T16:05:09.863Z,97.34
2024-02-09T16:07:41.908Z,97.24
2024-02-09T16:10:19.342Z,97.20
2024-02-09T16:12:54.277Z,97.34
2024-02-09T16:15:25.675Z,97.33
2024-02-09T16:17:57.513Z,97.29
2024-02-09T16:20:28.882Z,97.24
2024-02-09T16:22:59.876Z,97.29
2024-02-09T16:25:29.581Z,97.38
2024-02-09T16:28:00.739Z,97.48
2024-02-09T16:30:33.603Z,97.49
2024-02-09T16:33:04.847Z,97.55
2024-02-09T16:35:39.384Z,97.34
2024-02-09T16:38:10.543Z,97.29
2024-02-09T16:40:41.617Z,97.05
2024-02-09T16:43:12.993Z,97.18
2024-02-09T16:45:44.878Z,96.96
2024-02-09T16:48:17.064Z,96.98
2024-02-09T16:50:49.215Z,97.00
2024-02-09T16:53:20.503Z,96.88
2024-02-09T16:55:51.797Z,96.81
2024-02-09T16:58:23.409Z,96.91
2024-02-09T17:00:55.295Z,96.95
2024-02-09T17:03:28.747Z,97.05
2024-02-09T17:06:00.217Z,97.14
2024-02-09T17:08:31.294Z,97.20
2024-02-09T17:11:02.915Z,97.26
2024-02-09T17:13:34.157Z,97.29
2024-02-09T17:16:05.997Z,97.22
2024-02-09T17:18:37.354Z,97.23
2024-02-09T17:21:09.901Z,97.17
2024-02-09T17:23:41.003Z,97.29
2024-02-09T17:26:11.136Z,97.45
2024-02-09T17:28:42.472Z,97.58
2024-02-09T17:31:13.621Z,97.99
2024-02-09T17:33:44.921Z,98.11
2024-02-09T17:36:16.477Z,98.24
2024-02-09T17:38:48.159Z,98.07
2024-02-09T17:41:19.500Z,98.27
2024-02-09T17:43:50.782Z,98.37
2024-02-09T17:46:21.770Z,98.62
2024-02-09T17:48:53.036Z,98.58
2024-02-09T17:51:24.096Z,98.42
2024-02-09T17:53:55.126Z,98.48
2024-02-09T17:56:24.649Z,98.65
2024-02-09T17:58:55.939Z,98.72
2024-02-09T18:01:35.412Z,98.81
2024-02-09T18:04:06.845Z,98.75
2024-02-09T18:06:39.939Z,98.78
2024-02-09T18:09:11.655Z,98.70
2024-02-09T18:11:42.731Z,98.50
2024-02-09T18:14:13.753Z,98.40
2024-02-09T18:16:43.425Z,98.35
2024-02-09T18:19:15.530Z,98.19
2024-02-09T18:21:46.484Z,98.05
2024-02-09T18:24:17.457Z,97.94
2024-02-09T18:26:48.369Z,97.87
2024-02-09T18:29:20.194Z,98.12
2024-02-09T18:31:53.156Z,98.23
2024-02-09T18:34:24.346Z,98.32
2024-02-09T18:36:57.774Z,98.39
2024-02-09T18:39:28.784Z,98.31
2024-02-09T18:41:59.916Z,98.14
2024-02-09T18:44:30.665Z,98.20
2024-02-09T18:47:01.755Z,98.13
2024-02-09T18:49:33.569Z,98.13
2024-02-09T18:52:04.926Z,98.26
2024-02-09T18:54:37.301Z,98.19
2024-02-09T18:57:08.729Z,98.19
2024-02-09T18:59:39.857Z,98.17
2024-02-09T19:02:10.966Z,98.08
2024-02-09T19:04:44.326Z,98.19
2024-02-09T19:07:15.948Z,98.16
2024-02-09T19:09:45.446Z,97.84
2024-02-09T19:12:16.420Z,97.81
2024-02-09T19:14:48.530Z,97.84
2024-02-09T19:17:19.559Z,98.39
2024-02-09T19:19:49.459Z,98.57
2024-02-09T19:22:20.810Z,98.71
2024-02-09T19:24:51.975Z,99.00
2024-02-09T19:27:21.806Z,98.95
2024-02-09T19:29:53.504Z,98.88
2024-02-09T19:32:25.172Z,99.06
2024-02-09T19:34:56.791Z,99.09
2024-02-09T19:37:28.580Z,99.14
2024-02-09T19:40:00.725Z,99.13
2024-02-09T19:42:34.538Z,99.08
2024-02-09T19:45:06.102Z,99.12
2024-02-09T19:47:41.056Z,99.06
2024-02-09T19:50:16.037Z,99.03
2024-02-09T19:52:47.539Z,98.91
2024-02-09T19:55:19.257Z,98.72
2024-02-09T19:57:51.109Z,98.69
2024-02-09T20:00:23.605Z,98.62
2024-02-09T20:02:59.687Z,98.73
2024-02-09T20:05:38.611Z,98.71
2024-02-09T20:08:10.208Z,98.81
2024-02-09T20:10:41.250Z,98.98
2024-02-09T20:13:12.365Z,98.93
2024-02-09T20:15:41.943Z,98.98
2024-02-09T20:18:13.160Z,99.02
2024-02-09T20:20:45.487Z,98.98
2024-02-09T20:23:17.016Z,98.91
2024-02-09T20:25:48.287Z,98.89
2024-02-09T20:28:19.435Z,98.87
2024-02-09T20:30:49.506Z,98.82
2024-02-09T20:33:21.999Z,98.80
2024-02-09T20:35:56.747Z,98.68
2024-02-09T20:38:30.712Z,98.57
2024-02-09T20:41:01.928Z,98.31
2024-02-09T20:43:33.471Z,98.28
2024-02-09T20:46:04.501Z,98.28
2024-02-09T20:48:34.384Z,98.39
2024-02-09T20:51:07.112Z,98.39
2024-02-09T20:53:47.158Z,98.35
2024-02-09T20:56:18.268Z,98.33
2024-02-09T20:58:53.027Z,98.33
2024-02-09T21:01:24.346Z,98.32
2024-02-09T21:03:56.638Z,98.25
2024-02-09T21:06:29.971Z,98.26
2024-02-09T21:09:03.064Z,98.22
2024-02-09T21:11:34.227Z,98.17
2024-02-09T21:14:05.383Z,98.06
2024-02-09T21:16:36.684Z,98.06
2024-02-09T21:19:08.984Z,98.07
2024-02-09T21:21:41.911Z,97.90
2024-02-09T21:24:13.706Z,98.02
2024-02-09T21:26:44.951Z,98.27
2024-02-09T21:29:15.528Z,98.25
2024-02-09T21:31:50.503Z,98.34
2024-02-09T21:34:21.768Z,98.54
2024-02-09T21:36:54.065Z,98.55
2024-02-09T21:39:25.242Z,98.43
2024-02-09T21:41:56.135Z,98.54
2024-02-09T21:44:27.498Z,98.51
2024-02-09T21:46:58.593Z,98.55
2024-02-09T21:49:34.170Z,98.55
2024-02-09T21:52:06.408Z,98.42
2024-02-09T21:54:37.386Z,98.58
2024-02-09T21:57:08.952Z,98.71
2024-02-09T21:59:39.934Z,98.78
2024-02-09T22:02:12.639Z,98.80
2024-02-09T22:04:43.962Z,98.74
2024-02-09T22:07:15.073Z,98.68
2024-02-09T22:09:44.552Z,98.68
2024-02-09T22:12:25.035Z,98.68
2024-02-09T22:14:56.906Z,98.60
2024-02-09T22:17:29.283Z,98.71
2024-02-09T22:20:00.893Z,98.81
2024-02-09T22:22:34.774Z,98.82
2024-02-09T22:25:08.710Z,98.91
2024-02-09T22:27:41.464Z,98.82
2024-02-09T22:30:14.296Z,98.83
2024-02-09T22:32:45.384Z,98.84
2024-02-09T22:35:17.390Z,98.78
2024-02-09T22:37:49.101Z,98.69
2024-02-09T22:40:20.794Z,98.55
2024-02-09T22:42:54.652Z,98.58
2024-02-09T22:45:25.993Z,98.67
2024-02-09T22:47:57.347Z,98.61
2024-02-09T22:50:28.715Z,98.62
2024-02-09T22:52:59.905Z,98.62
2024-02-09T22:55:31.112Z,98.67
2024-02-09T22:58:03.703Z,98.70
2024-02-09T23:00:37.482Z,98.70
2024-02-09T23:03:10.641Z,98.90
2024-02-09T23:05:42.281Z,98.98
2024-02-09T23:08:13.980Z,98.95
2024-02-09T23:10:45.118Z,98.80
2024-02-09T23:13:14.504Z,98.64
2024-02-09T23:15:45.494Z,98.70
2024-02-09T23:18:16.573Z,98.69
2024-02-09T23:20:48.964Z,98.54
2024-02-09T23:23:19.938Z,98.54
2024-02-09T23:25:52.632Z,98.51
2024-02-09T23:28:29.833Z,98.60
2024-02-09T23:31:01.994Z,98.66
2024-02-09T23:33:33.322Z,98.65
2024-02-09T23:36:04.493Z,98.82
2024-02-09T23:38:36.580Z,98.84
2024-02-09T23:41:07.772Z,98.82
2024-02-09T23:43:37.906Z,98.86
2024-02-09T23:46:09.149Z,98.93
2024-02-09T23:48:42.107Z,98.98
2024-02-09T23:51:13.432Z,99.07
2024-02-09T23:53:44.435Z,99.40
2024-02-09T23:56:15.584Z,99.39
2024-02-09T23:58:48.040Z,99.56
